Time;durP1;ratioP1;P1;durP2;ratioP2;P2;SDS_P1;SDS_P2;PMS_P1;PMS_P2;Temp;Humidity;BMP_temperature;BMP_pressure;BME280_temperature;BME280_humidity;BME280_pressure;Samples;Min_cycle;Max_cycle;Signal;HPM_P1;HPM_P2
2022/02/18 00:02:00;;;;;;;0.30;0.20;;;7.10;99.90;;;;;;5072716;28;20437;-83
2022/02/18 00:04:27;;;;;;;0.30;0.20;;;7.10;99.90;;;;;;5072626;28;20476;-82
2022/02/18 00:06:54;;;;;;;0.30;0.20;;;7.10;99.90;;;;;;5072578;28;20460;-83
2022/02/18 00:09:20;;;;;;;0.30;0.20;;;7.10;99.90;;;;;;5072896;28;20449;-83
2022/02/18 00:11:47;;;;;;;0.30;0.30;;;7.10;99.90;;;;;;5072565;28;20456;-83
2022/02/18 00:14:14;;;;;;;0.30;0.20;;;7.10;99.90;;;;;;5075457;28;20441;-83
2022/02/18 00:16:40;;;;;;;0.30;0.20;;;7.00;99.90;;;;;;5076578;28;20449;-83
2022/02/18 00:19:09;;;;;;;0.37;0.33;;;7.00;99.90;;;;;;5076627;28;20448;-82
2022/02/18 00:21:35;;;;;;;0.40;0.30;;;7.00;99.90;;;;;;5076599;28;20819;-84
2022/02/18 00:24:02;;;;;;;0.30;0.30;;;7.00;99.90;;;;;;5076341;28;20484;-84
2022/02/18 00:26:29;;;;;;;0.30;0.20;;;7.00;99.90;;;;;;5076471;28;20439;-83
2022/02/18 00:28:56;;;;;;;1.40;0.70;;;7.10;99.90;;;;;;5077115;28;20798;-83
2022/02/18 00:31:22;;;;;;;0.50;0.50;;;7.10;99.90;;;;;;5075975;28;20447;-83
2022/02/18 00:33:49;;;;;;;0.30;0.30;;;7.10;99.90;;;;;;5076342;28;20456;-83
2022/02/18 00:36:17;;;;;;;0.30;0.30;;;7.10;99.90;;;;;;5076294;28;20444;-83
2022/02/18 00:38:44;;;;;;;0.93;0.93;;;7.10;99.90;;;;;;5076179;28;20499;-83
2022/02/18 00:41:13;;;;;;;0.40;0.30;;;7.10;99.90;;;;;;5076228;28;20453;-83
2022/02/18 00:43:40;;;;;;;0.30;0.20;;;7.10;99.90;;;;;;5076091;28;20480;-83
2022/02/18 00:46:06;;;;;;;0.30;0.20;;;7.20;99.90;;;;;;5075824;28;20456;-83
2022/02/18 00:48:33;;;;;;;0.30;0.30;;;7.20;99.90;;;;;;5076029;28;20460;-83
2022/02/18 00:51:00;;;;;;;0.30;0.20;;;7.20;99.90;;;;;;5076065;28;20445;-83
2022/02/18 00:53:28;;;;;;;0.30;0.20;;;7.20;99.90;;;;;;5075640;28;20449;-83
2022/02/18 00:55:55;;;;;;;0.30;0.20;;;7.20;99.90;;;;;;5075843;28;20448;-83
2022/02/18 00:58:23;;;;;;;0.30;0.20;;;7.20;99.90;;;;;;5075469;28;20607;-83
2022/02/18 01:00:50;;;;;;;0.30;0.20;;;7.20;99.90;;;;;;5075840;28;20455;-83
2022/02/18 01:03:17;;;;;;;0.30;0.20;;;7.20;99.90;;;;;;5075710;28;20437;-83
2022/02/18 01:05:44;;;;;;;0.30;0.20;;;7.20;99.90;;;;;;5075807;28;20449;-83
2022/02/18 01:08:11;;;;;;;0.30;0.20;;;7.20;99.90;;;;;;5075724;28;20468;-83
2022/02/18 01:10:39;;;;;;;0.93;0.93;;;7.20;99.90;;;;;;5075366;28;20968;-83
2022/02/18 01:13:06;;;;;;;0.30;0.20;;;7.30;99.90;;;;;;5075296;28;20452;-83
2022/02/18 01:15:33;;;;;;;1.33;0.40;;;7.20;99.90;;;;;;5075377;28;20936;-83
2022/02/18 01:18:00;;;;;;;0.80;0.30;;;7.20;99.90;;;;;;5075422;28;20480;-83
2022/02/18 01:20:26;;;;;;;1.33;1.23;;;7.30;99.90;;;;;;5075509;28;20453;-83
2022/02/18 01:22:53;;;;;;;0.30;0.30;;;7.20;99.90;;;;;;5075188;28;20436;-83
2022/02/18 01:25:20;;;;;;;0.30;0.30;;;7.30;99.90;;;;;;5074827;28;20487;-84
2022/02/18 01:27:48;;;;;;;0.57;0.37;;;7.30;99.90;;;;;;5075077;28;20459;-83
2022/02/18 01:30:15;;;;;;;0.30;0.20;;;7.30;99.90;;;;;;5075055;28;20434;-83
2022/02/18 01:32:41;;;;;;;0.30;0.30;;;7.30;99.90;;;;;;5075285;28;20818;-83
2022/02/18 01:35:10;;;;;;;0.30;0.30;;;7.30;99.90;;;;;;5075008;28;20448;-83
2022/02/18 01:37:36;;;;;;;0.50;0.50;;;7.30;99.90;;;;;;5075152;28;20515;-83
2022/02/18 01:40:04;;;;;;;0.30;0.30;;;7.30;99.90;;;;;;5075183;28;20452;-84
2022/02/18 01:42:31;;;;;;;0.30;0.30;;;7.30;99.90;;;;;;5075181;28;20429;-83
2022/02/18 01:44:59;;;;;;;0.30;0.23;;;7.30;99.90;;;;;;5074970;28;20477;-83
2022/02/18 01:47:26;;;;;;;0.30;0.20;;;7.30;99.90;;;;;;5074687;28;20456;-83
2022/02/18 01:49:58;;;;;;;0.30;0.30;;;7.30;99.90;;;;;;5074985;28;20853;-83
2022/02/18 01:52:27;;;;;;;0.30;0.30;;;7.30;99.90;;;;;;5074662;28;20862;-83
2022/02/18 01:54:54;;;;;;;0.30;0.20;;;7.30;99.90;;;;;;5074659;28;20804;-83
2022/02/18 01:57:20;;;;;;;0.30;0.20;;;7.30;99.90;;;;;;5074458;28;20476;-83
2022/02/18 01:59:47;;;;;;;0.30;0.30;;;7.30;99.90;;;;;;5074751;28;20452;-83
2022/02/18 02:02:15;;;;;;;0.30;0.30;;;7.20;99.90;;;;;;5074641;28;20449;-83
2022/02/18 02:04:46;;;;;;;0.30;0.20;;;7.20;99.90;;;;;;5074594;28;20487;-84
2022/02/18 02:07:13;;;;;;;0.30;0.30;;;7.20;99.90;;;;;;5074387;28;20449;-83
2022/02/18 02:09:40;;;;;;;0.30;0.30;;;7.20;99.90;;;;;;5074207;28;20817;-84
2022/02/18 02:12:07;;;;;;;0.30;0.30;;;7.20;99.90;;;;;;5074186;28;20939;-84
2022/02/18 02:14:33;;;;;;;0.30;0.20;;;7.20;99.90;;;;;;5074407;28;20458;-83
2022/02/18 02:17:00;;;;;;;0.30;0.30;;;7.20;99.90;;;;;;5073981;28;20465;-83
2022/02/18 02:19:30;;;;;;;0.60;0.30;;;7.20;99.90;;;;;;5074340;28;20456;-83
2022/02/18 02:21:57;;;;;;;0.30;0.20;;;7.20;99.90;;;;;;5074029;28;20460;-84
2022/02/18 02:24:25;;;;;;;0.30;0.30;;;7.20;99.90;;;;;;5073873;28;20472;-84
2022/02/18 02:26:52;;;;;;;1.03;0.93;;;7.20;99.90;;;;;;5074223;28;20465;-85
2022/02/18 02:29:19;;;;;;;0.30;0.20;;;7.20;99.90;;;;;;5074167;28;20448;-84
2022/02/18 02:31:47;;;;;;;0.30;0.30;;;7.20;99.90;;;;;;5074103;28;20449;-83
2022/02/18 02:34:14;;;;;;;0.30;0.30;;;7.20;99.90;;;;;;5074041;28;20438;-83
2022/02/18 02:36:43;;;;;;;0.30;0.20;;;7.20;99.90;;;;;;5072957;28;20456;-83
2022/02/18 02:39:10;;;;;;;0.30;0.30;;;7.20;99.90;;;;;;5074001;28;20449;-83
2022/02/18 02:41:38;;;;;;;0.30;0.20;;;7.10;99.90;;;;;;5073848;28;20459;-83
2022/02/18 02:44:05;;;;;;;0.30;0.20;;;7.10;99.90;;;;;;5073932;28;20445;-83
2022/02/18 02:46:34;;;;;;;0.50;0.30;;;7.10;99.90;;;;;;5073754;28;20944;-83
2022/02/18 02:49:00;;;;;;;0.30;0.20;;;7.10;99.90;;;;;;5073857;28;20445;-83
2022/02/18 02:51:27;;;;;;;0.30;0.20;;;7.10;99.90;;;;;;5073827;28;20471;-83
2022/02/18 02:53:54;;;;;;;0.30;0.27;;;7.10;99.90;;;;;;5073763;28;20444;-83
2022/02/18 02:56:20;;;;;;;2.40;0.90;;;7.10;99.90;;;;;;5073730;28;20452;-82
2022/02/18 02:58:49;;;;;;;0.30;0.30;;;7.10;99.90;;;;;;5073252;28;20806;-83
2022/02/18 03:01:16;;;;;;;0.30;0.30;;;7.10;99.90;;;;;;5073648;28;20437;-83
2022/02/18 03:03:43;;;;;;;0.30;0.30;;;7.10;99.90;;;;;;5073544;28;20455;-83
2022/02/18 03:06:10;;;;;;;0.30;0.20;;;7.10;99.90;;;;;;5073509;28;20485;-85
2022/02/18 03:08:36;;;;;;;0.77;0.77;;;7.10;99.90;;;;;;5073085;28;20472;-85
2022/02/18 03:11:18;;;;;;;0.37;0.27;;;7.10;99.90;;;;;;5073246;28;20445;-84
2022/02/18 03:13:47;;;;;;;0.30;0.30;;;7.10;99.90;;;;;;5073589;28;20413;-84
2022/02/18 03:16:16;;;;;;;0.30;0.20;;;7.10;99.90;;;;;;5073440;28;20444;-83
2022/02/18 03:18:44;;;;;;;0.30;0.30;;;7.10;99.90;;;;;;5073389;28;20465;-82
2022/02/18 03:21:11;;;;;;;0.30;0.30;;;7.20;99.90;;;;;;5073294;28;20445;-83
2022/02/18 03:23:38;;;;;;;0.40;0.37;;;7.20;99.90;;;;;;5073041;28;20460;-83
2022/02/18 03:26:07;;;;;;;0.30;0.30;;;7.30;99.90;;;;;;5073361;28;21008;-85
2022/02/18 03:28:34;;;;;;;0.30;0.30;;;7.30;99.90;;;;;;5073322;28;20472;-83
2022/02/18 03:31:00;;;;;;;0.30;0.30;;;7.30;99.90;;;;;;5073035;28;20437;-83
2022/02/18 03:33:28;;;;;;;0.30;0.20;;;7.30;99.90;;;;;;5073257;28;20441;-82
2022/02/18 03:35:55;;;;;;;0.30;0.30;;;7.30;99.90;;;;;;5073292;28;20460;-83
2022/02/18 03:38:22;;;;;;;0.40;0.40;;;7.40;99.90;;;;;;5073154;28;20464;-83
2022/02/18 03:40:49;;;;;;;0.30;0.20;;;7.30;99.90;;;;;;5073182;28;20444;-83
2022/02/18 03:43:16;;;;;;;0.30;0.20;;;7.30;99.90;;;;;;5073234;28;20445;-82
2022/02/18 03:45:42;;;;;;;1.03;1.03;;;7.30;99.90;;;;;;5072800;28;20481;-83
2022/02/18 03:48:09;;;;;;;0.30;0.23;;;7.20;99.90;;;;;;5075403;28;20464;-83
2022/02/18 03:50:40;;;;;;;0.30;0.30;;;7.20;99.90;;;;;;5076980;28;20936;-83
2022/02/18 03:53:06;;;;;;;0.30;0.20;;;7.20;99.90;;;;;;5077257;28;20491;-83
2022/02/18 03:55:33;;;;;;;0.30;0.30;;;7.10;99.90;;;;;;5077614;28;20453;-83
2022/02/18 03:58:00;;;;;;;0.30;0.30;;;7.10;99.90;;;;;;5076734;28;20546;-83
2022/02/18 04:00:27;;;;;;;0.40;0.30;;;7.10;99.90;;;;;;5076810;28;20436;-83
2022/02/18 04:02:54;;;;;;;0.30;0.30;;;7.00;99.90;;;;;;5076975;28;20456;-83
2022/02/18 04:05:20;;;;;;;0.30;0.30;;;7.00;99.90;;;;;;5076531;28;20836;-83
2022/02/18 04:07:49;;;;;;;0.30;0.20;;;7.00;99.90;;;;;;5076852;28;20460;-84
2022/02/18 04:10:16;;;;;;;0.30;0.30;;;7.00;99.90;;;;;;5076843;28;20453;-84
2022/02/18 04:12:43;;;;;;;0.30;0.30;;;7.10;99.90;;;;;;5076453;28;20943;-83
2022/02/18 04:15:10;;;;;;;0.30;0.27;;;7.10;99.90;;;;;;5076649;28;20464;-84
2022/02/18 04:17:37;;;;;;;0.30;0.20;;;7.10;99.90;;;;;;5076693;28;20459;-84
2022/02/18 04:20:04;;;;;;;0.30;0.30;;;7.10;99.90;;;;;;5076430;28;20932;-83
2022/02/18 04:22:31;;;;;;;0.30;0.30;;;7.10;99.90;;;;;;5076646;28;20447;-84
2022/02/18 04:24:59;;;;;;;0.30;0.30;;;7.10;99.90;;;;;;5076682;28;20508;-85
2022/02/18 04:27:26;;;;;;;0.30;0.20;;;7.20;99.90;;;;;;5076441;28;20460;-84
2022/02/18 04:29:53;;;;;;;0.30;0.20;;;7.10;99.90;;;;;;5076446;28;20445;-83
2022/02/18 04:32:19;;;;;;;0.40;0.40;;;7.20;99.90;;;;;;5076128;28;20451;-83
2022/02/18 04:34:46;;;;;;;1.07;0.97;;;7.20;99.90;;;;;;5076423;28;20456;-83
2022/02/18 04:37:13;;;;;;;0.30;0.30;;;7.20;99.90;;;;;;5076666;28;20806;-84
2022/02/18 04:39:39;;;;;;;0.50;0.30;;;7.20;99.90;;;;;;5076027;28;20445;-83
2022/02/18 04:42:08;;;;;;;0.30;0.30;;;7.20;99.90;;;;;;5076233;28;20449;-83
2022/02/18 04:44:35;;;;;;;0.40;0.30;;;7.20;99.90;;;;;;5075901;28;20429;-83
2022/02/18 04:47:02;;;;;;;0.30;0.30;;;7.20;99.90;;;;;;5075799;28;20464;-83
2022/02/18 04:49:29;;;;;;;0.30;0.20;;;7.20;99.90;;;;;;5076136;28;20440;-83
2022/02/18 04:51:56;;;;;;;0.30;0.20;;;7.30;99.90;;;;;;5075729;28;20448;-83
2022/02/18 04:54:23;;;;;;;0.30;0.20;;;7.30;99.90;;;;;;5075740;28;20993;-83
2022/02/18 04:56:50;;;;;;;0.30;0.20;;;7.30;99.90;;;;;;5075691;28;20469;-83
2022/02/18 04:59:19;;;;;;;0.30;0.20;;;7.30;99.90;;;;;;5074822;28;20429;-82
2022/02/18 05:01:46;;;;;;;0.30;0.30;;;7.30;99.90;;;;;;5075795;28;20943;-83
2022/02/18 05:04:13;;;;;;;0.30;0.30;;;7.20;99.90;;;;;;5075855;28;20445;-83
2022/02/18 05:06:40;;;;;;;0.30;0.30;;;7.20;99.90;;;;;;5075420;28;20986;-83
2022/02/18 05:09:07;;;;;;;0.30;0.30;;;7.30;99.90;;;;;;5075800;28;20453;-83
2022/02/18 05:11:33;;;;;;;0.73;0.73;;;7.30;99.90;;;;;;5075403;28;20451;-84
2022/02/18 05:14:00;;;;;;;0.30;0.20;;;7.40;99.90;;;;;;5075404;28;20940;-82
2022/02/18 05:16:28;;;;;;;0.30;0.20;;;7.40;99.90;;;;;;5075570;28;20437;-83
2022/02/18 05:18:55;;;;;;;0.30;0.30;;;7.30;99.90;;;;;;5075537;28;20460;-82
2022/02/18 05:21:23;;;;;;;0.30;0.20;;;7.30;99.90;;;;;;5075547;28;20540;-82
2022/02/18 05:23:49;;;;;;;0.40;0.40;;;7.30;99.90;;;;;;5075257;28;20441;-83
2022/02/18 05:26:17;;;;;;;0.30;0.30;;;7.20;99.90;;;;;;5075057;28;20491;-84
2022/02/18 05:28:43;;;;;;;0.30;0.20;;;7.20;99.90;;;;;;5075336;28;20489;-83
2022/02/18 05:31:10;;;;;;;0.30;0.30;;;7.20;99.90;;;;;;5075399;28;20468;-85
2022/02/18 05:33:38;;;;;;;0.30;0.20;;;7.20;99.90;;;;;;5075305;28;20456;-83
2022/02/18 05:36:05;;;;;;;0.40;0.30;;;7.20;99.90;;;;;;5075271;28;20445;-83
2022/02/18 05:38:32;;;;;;;0.30;0.20;;;7.30;99.90;;;;;;5075168;28;20539;-83
2022/02/18 05:40:59;;;;;;;0.30;0.20;;;7.30;99.90;;;;;;5075210;28;20445;-83
2022/02/18 05:43:26;;;;;;;0.30;0.30;;;7.30;99.90;;;;;;5075145;28;20449;-84
2022/02/18 05:45:52;;;;;;;0.30;0.30;;;7.30;99.90;;;;;;5074795;28;20475;-83
2022/02/18 05:48:19;;;;;;;0.30;0.30;;;7.30;99.90;;;;;;5075531;28;20460;-83
2022/02/18 05:50:47;;;;;;;0.30;0.30;;;7.30;99.90;;;;;;5074963;28;20445;-83
2022/02/18 05:53:14;;;;;;;0.30;0.30;;;7.30;99.90;;;;;;5074904;28;20441;-83
2022/02/18 05:55:40;;;;;;;0.30;0.30;;;7.30;99.90;;;;;;5074877;28;20456;-83
2022/02/18 05:58:07;;;;;;;0.30;0.20;;;7.40;99.90;;;;;;5074366;28;20882;-83
2022/02/18 06:00:34;;;;;;;0.30;0.30;;;7.40;99.90;;;;;;5074722;28;20449;-84
2022/02/18 06:03:01;;;;;;;0.30;0.20;;;7.40;99.90;;;;;;5074734;28;20464;-84
2022/02/18 06:05:28;;;;;;;0.30;0.30;;;7.40;99.90;;;;;;5074292;28;20484;-84
2022/02/18 06:07:56;;;;;;;1.57;0.93;;;7.40;99.90;;;;;;5074235;28;20995;-84
2022/02/18 06:10:23;;;;;;;0.30;0.30;;;7.40;99.90;;;;;;5074450;28;20452;-84
2022/02/18 06:12:50;;;;;;;0.33;0.33;;;7.40;99.90;;;;;;5074484;28;20448;-84
2022/02/18 06:15:17;;;;;;;0.30;0.20;;;7.40;99.90;;;;;;5074102;28;20940;-84
2022/02/18 06:17:44;;;;;;;0.30;0.20;;;7.40;99.90;;;;;;5074452;28;20476;-84
2022/02/18 06:20:11;;;;;;;0.30;0.30;;;7.40;99.90;;;;;;5074386;28;20494;-84
2022/02/18 06:22:38;;;;;;;0.30;0.20;;;7.40;99.90;;;;;;5074038;28;20445;-84
2022/02/18 06:25:09;;;;;;;0.30;0.30;;;7.40;99.90;;;;;;5074237;28;20445;-83
2022/02/18 06:27:36;;;;;;;0.30;0.20;;;7.50;99.90;;;;;;5074215;28;20465;-84
2022/02/18 06:30:03;;;;;;;0.30;0.30;;;7.50;99.90;;;;;;5073871;28;20437;-84
2022/02/18 06:32:30;;;;;;;0.30;0.20;;;7.60;99.90;;;;;;5073939;28;20822;-84
2022/02/18 06:34:57;;;;;;;0.30;0.30;;;7.50;99.90;;;;;;5074164;28;20449;-83
2022/02/18 06:37:24;;;;;;;0.30;0.30;;;7.50;99.90;;;;;;5073889;28;20457;-85
2022/02/18 06:39:51;;;;;;;0.33;0.33;;;7.50;99.90;;;;;;5073965;28;20449;-85
2022/02/18 06:42:19;;;;;;;0.30;0.20;;;7.60;99.90;;;;;;5074028;28;20449;-85
2022/02/18 06:44:46;;;;;;;0.30;0.20;;;7.60;99.90;;;;;;5073767;28;20499;-85
2022/02/18 06:47:12;;;;;;;0.30;0.20;;;7.60;99.90;;;;;;5073803;28;20481;-85
2022/02/18 06:49:40;;;;;;;0.30;0.20;;;7.60;99.90;;;;;;5074302;28;20903;-85
2022/02/18 06:52:08;;;;;;;0.30;0.30;;;7.60;99.90;;;;;;5073751;28;20644;-85
2022/02/18 06:54:34;;;;;;;0.30;0.20;;;7.60;99.90;;;;;;5073387;28;20939;-85
2022/02/18 06:57:01;;;;;;;0.30;0.20;;;7.70;99.90;;;;;;5073395;28;20484;-85
2022/02/18 06:59:30;;;;;;;0.30;0.23;;;7.70;99.90;;;;;;5073684;28;20437;-85
2022/02/18 07:01:57;;;;;;;0.30;0.20;;;7.70;99.90;;;;;;5073667;28;20429;-85
2022/02/18 07:04:24;;;;;;;0.30;0.30;;;7.70;99.90;;;;;;5073679;28;20781;-85
2022/02/18 07:06:51;;;;;;;0.30;0.20;;;7.70;99.90;;;;;;5073208;28;20492;-85
2022/02/18 07:09:18;;;;;;;1.53;1.43;;;7.80;99.90;;;;;;5073644;28;20417;-85
2022/02/18 07:11:45;;;;;;;0.30;0.20;;;7.80;99.90;;;;;;5073610;28;20441;-85
2022/02/18 07:14:12;;;;;;;0.30;0.30;;;7.90;99.90;;;;;;5073248;28;20429;-85
2022/02/18 07:16:42;;;;;;;0.40;0.37;;;7.90;99.90;;;;;;5073440;28;20490;-83
2022/02/18 07:19:10;;;;;;;0.57;0.57;;;7.90;99.90;;;;;;5073997;28;20496;-83
2022/02/18 07:21:37;;;;;;;0.30;0.20;;;8.00;99.90;;;;;;5072971;28;20430;-83
2022/02/18 07:24:06;;;;;;;0.30;0.20;;;8.00;99.90;;;;;;5073514;28;20429;-83
2022/02/18 07:26:33;;;;;;;0.30;0.23;;;8.00;99.90;;;;;;5072974;28;20468;-83
2022/02/18 07:29:00;;;;;;;0.30;0.20;;;8.10;99.90;;;;;;5072992;28;20920;-85
2022/02/18 07:31:26;;;;;;;0.30;0.30;;;8.20;99.90;;;;;;5073224;28;20441;-85
2022/02/18 07:33:55;;;;;;;0.30;0.20;;;8.20;99.90;;;;;;5073335;28;20437;-85
2022/02/18 07:36:21;;;;;;;0.30;0.20;;;8.30;99.90;;;;;;5073343;28;20421;-85
2022/02/18 07:38:48;;;;;;;0.30;0.20;;;8.40;99.90;;;;;;5073159;28;20465;-85
2022/02/18 07:41:15;;;;;;;3.00;0.47;;;8.40;99.90;;;;;;5073270;28;20440;-85
2022/02/18 07:43:42;;;;;;;0.30;0.20;;;8.40;99.90;;;;;;5073150;28;20425;-85
2022/02/18 07:46:09;;;;;;;0.30;0.30;;;8.40;99.90;;;;;;5073012;28;20488;-84
2022/02/18 07:48:36;;;;;;;0.30;0.20;;;8.50;99.90;;;;;;5072831;28;21051;-85
2022/02/18 07:51:06;;;;;;;0.30;0.20;;;8.60;99.90;;;;;;5073187;28;20524;-85
2022/02/18 07:53:33;;;;;;;0.30;0.20;;;8.70;99.90;;;;;;5073117;28;20484;-85
2022/02/18 07:56:00;;;;;;;0.30;0.20;;;8.80;99.90;;;;;;5073145;28;20440;-85
2022/02/18 07:58:27;;;;;;;0.30;0.23;;;8.90;99.90;;;;;;5072658;28;20484;-85
2022/02/18 08:00:53;;;;;;;0.30;0.20;;;8.80;99.90;;;;;;5072880;28;20437;-85
2022/02/18 08:03:20;;;;;;;0.30;0.30;;;8.90;99.90;;;;;;5073078;28;20432;-84
2022/02/18 08:05:47;;;;;;;0.30;0.30;;;8.90;99.90;;;;;;5072941;28;20432;-85
2022/02/18 08:08:16;;;;;;;1.17;1.07;;;9.00;99.90;;;;;;5072828;28;20471;-85
2022/02/18 08:10:43;;;;;;;0.30;0.30;;;9.10;99.90;;;;;;5072962;28;20443;-85
2022/02/18 08:13:10;;;;;;;0.30;0.20;;;9.20;99.90;;;;;;5072964;28;20437;-85
2022/02/18 08:15:37;;;;;;;0.30;0.27;;;9.30;99.90;;;;;;5072922;28;20432;-85
2022/02/18 08:18:04;;;;;;;0.30;0.20;;;9.30;99.90;;;;;;5072499;28;20837;-85
2022/02/18 08:20:31;;;;;;;0.30;0.30;;;9.40;99.90;;;;;;5072636;28;20410;-85
2022/02/18 08:22:58;;;;;;;0.30;0.30;;;9.50;99.90;;;;;;5072534;28;20912;-85
2022/02/18 08:25:26;;;;;;;0.30;0.20;;;9.60;99.90;;;;;;5072849;28;20429;-85
2022/02/18 08:27:53;;;;;;;0.30;0.20;;;9.60;99.90;;;;;;5072676;28;20857;-85
2022/02/18 08:30:20;;;;;;;0.30;0.20;;;9.70;99.90;;;;;;5072834;28;20432;-85
2022/02/18 08:32:46;;;;;;;0.30;0.30;;;9.80;99.90;;;;;;5072591;28;20808;-85
2022/02/18 08:35:13;;;;;;;0.30;0.27;;;9.90;99.90;;;;;;5075192;28;20429;-85
2022/02/18 08:37:40;;;;;;;0.30;0.20;;;9.90;99.90;;;;;;5076280;28;20463;-85
2022/02/18 08:40:08;;;;;;;0.40;0.40;;;10.10;99.90;;;;;;5076256;28;20429;-85
2022/02/18 08:42:36;;;;;;;0.30;0.30;;;10.10;99.90;;;;;;5076036;28;20417;-85
2022/02/18 08:45:03;;;;;;;0.30;0.23;;;10.20;99.90;;;;;;5076126;28;20807;-85
2022/02/18 08:47:30;;;;;;;0.47;0.30;;;10.30;99.90;;;;;;5075726;28;20996;-85
2022/02/18 08:49:57;;;;;;;0.30;0.20;;;10.40;99.90;;;;;;5075862;28;20932;-85
2022/02/18 08:52:23;;;;;;;0.30;0.30;;;10.50;99.90;;;;;;5075978;28;20445;-85
2022/02/18 08:54:50;;;;;;;1.13;1.13;;;10.70;99.90;;;;;;5076107;28;20433;-85
2022/02/18 08:57:17;;;;;;;0.30;0.20;;;10.90;99.90;;;;;;5075721;28;20472;-85
2022/02/18 08:59:45;;;;;;;0.30;0.20;;;11.20;99.90;;;;;;5076034;28;20452;-84
2022/02/18 09:02:14;;;;;;;0.40;0.40;;;11.50;99.90;;;;;;5075954;28;20467;-85
2022/02/18 09:04:40;;;;;;;0.40;0.30;;;11.70;99.90;;;;;;5075637;28;20920;-84
2022/02/18 09:07:07;;;;;;;0.30;0.30;;;11.90;99.90;;;;;;5075462;28;20500;-84
2022/02/18 09:09:34;;;;;;;0.30;0.20;;;12.30;99.90;;;;;;5075845;28;20429;-84
2022/02/18 09:12:00;;;;;;;0.30;0.20;;;12.30;99.90;;;;;;5075760;28;20434;-84
2022/02/18 09:14:27;;;;;;;0.40;0.40;;;12.40;99.90;;;;;;5075740;28;20785;-85
2022/02/18 09:16:55;;;;;;;0.83;0.30;;;12.60;99.90;;;;;;5075318;28;20469;-85
2022/02/18 09:19:22;;;;;;;0.30;0.20;;;12.70;99.90;;;;;;5075875;28;20417;-85
2022/02/18 09:21:49;;;;;;;0.30;0.30;;;12.70;99.90;;;;;;5076207;28;20449;-85
2022/02/18 09:24:16;;;;;;;0.30;0.30;;;13.20;99.90;;;;;;5075428;28;20417;-85
2022/02/18 09:26:43;;;;;;;0.30;0.30;;;13.90;99.90;;;;;;5075002;28;20508;-85
2022/02/18 09:29:11;;;;;;;0.67;0.30;;;14.60;99.90;;;;;;5075484;28;20421;-84
2022/02/18 09:31:38;;;;;;;0.30;0.20;;;15.50;99.90;;;;;;5075070;28;20974;-84
2022/02/18 09:34:07;;;;;;;0.30;0.30;;;16.90;99.90;;;;;;5076219;28;20455;-85
2022/02/18 09:36:34;;;;;;;0.30;0.30;;;18.00;99.90;;;;;;5075460;28;20433;-85
2022/02/18 09:39:01;;;;;;;0.30;0.30;;;19.00;99.90;;;;;;5075285;28;20437;-84
2022/02/18 09:41:28;;;;;;;1.83;0.30;;;19.50;99.90;;;;;;5075245;28;20436;-85
2022/02/18 09:43:55;;;;;;;0.30;0.27;;;19.80;98.50;;;;;;5075200;28;20432;-85
2022/02/18 09:46:23;;;;;;;2.30;0.30;;;19.70;97.20;;;;;;5074653;28;20465;-85
2022/02/18 09:48:50;;;;;;;0.30;0.30;;;19.10;97.30;;;;;;5075094;28;20447;-85
2022/02/18 09:51:19;;;;;;;0.30;0.20;;;18.90;97.20;;;;;;5074608;28;20909;-85
2022/02/18 09:53:46;;;;;;;0.30;0.30;;;18.90;97.80;;;;;;5074686;28;20444;-85
2022/02/18 09:56:17;;;;;;;0.60;0.40;;;18.60;97.30;;;;;;5074942;28;20459;-85
2022/02/18 09:58:44;;;;;;;0.30;0.30;;;18.60;97.80;;;;;;5074436;28;20518;-85
2022/02/18 10:01:13;;;;;;;0.30;0.30;;;18.30;98.50;;;;;;5074816;28;20429;-85
2022/02/18 10:03:40;;;;;;;0.30;0.30;;;17.80;98.40;;;;;;5074729;28;20414;-85
2022/02/18 10:06:07;;;;;;;0.30;0.30;;;17.30;99.00;;;;;;5074681;28;20456;-85
2022/02/18 10:08:35;;;;;;;0.40;0.30;;;16.90;99.90;;;;;;5074506;28;20560;-85
2022/02/18 10:11:04;;;;;;;0.30;0.30;;;16.90;99.90;;;;;;5074339;28;20433;-85
2022/02/18 10:13:34;;;;;;;0.30;0.20;;;17.10;99.90;;;;;;5075104;28;20437;-85
2022/02/18 10:16:02;;;;;;;0.67;0.30;;;17.20;99.90;;;;;;5074379;28;20514;-85
2022/02/18 10:18:44;;;;;;;0.30;0.30;;;17.10;99.90;;;;;;5074200;28;20457;-85
2022/02/18 10:21:14;;;;;;;0.30;0.30;;;17.70;99.90;;;;;;5074423;28;20433;-85
2022/02/18 10:23:43;;;;;;;0.30;0.20;;;18.80;99.50;;;;;;5074372;28;20448;-84
2022/02/18 10:26:09;;;;;;;0.63;0.30;;;19.70;97.60;;;;;;5074333;28;20521;-84
2022/02/18 10:28:36;;;;;;;0.30;0.30;;;20.10;95.30;;;;;;5074112;28;20481;-84
2022/02/18 10:31:05;;;;;;;0.30;0.30;;;20.60;94.20;;;;;;5073918;28;20441;-84
2022/02/18 10:33:35;;;;;;;0.80;0.40;;;21.20;93.00;;;;;;5073924;28;20803;-84
2022/02/18 10:36:04;;;;;;;0.30;0.30;;;21.20;91.40;;;;;;5074340;28;20440;-85
2022/02/18 10:38:32;;;;;;;0.30;0.20;;;21.40;91.10;;;;;;5073666;28;20456;-85
2022/02/18 10:41:01;;;;;;;0.30;0.20;;;22.10;90.30;;;;;;5073696;28;20923;-84
2022/02/18 10:43:29;;;;;;;0.30;0.20;;;21.30;89.40;;;;;;5074055;28;20409;-84
2022/02/18 10:46:01;;;;;;;0.40;0.30;;;20.40;90.00;;;;;;5074028;28;20435;-84
2022/02/18 10:48:32;;;;;;;0.30;0.30;;;19.80;91.50;;;;;;5073545;28;20983;-84
2022/02/18 10:51:07;;;;;;;1.27;0.30;;;19.40;91.90;;;;;;5073935;28;20466;-84
2022/02/18 10:53:39;;;;;;;0.30;0.20;;;18.60;93.10;;;;;;5073800;28;20493;-84
2022/02/18 10:56:08;;;;;;;0.30;0.30;;;18.10;93.90;;;;;;5073279;28;20929;-84
2022/02/18 10:58:37;;;;;;;0.30;0.20;;;17.80;94.60;;;;;;5072809;28;20485;-84
2022/02/18 11:01:06;;;;;;;0.50;0.30;;;17.40;94.90;;;;;;5073365;28;20881;-84
2022/02/18 11:03:33;;;;;;;0.40;0.30;;;17.00;96.10;;;;;;5073596;28;20444;-84
2022/02/18 11:06:20;;;;;;;0.50;0.40;;;16.70;96.50;;;;;;5073651;28;20437;-84
2022/02/18 11:08:55;;;;;;;0.40;0.30;;;16.60;97.20;;;;;;5073453;28;20492;-84
2022/02/18 11:11:28;;;;;;;0.30;0.20;;;16.60;97.70;;;;;;5073594;28;20437;-82
2022/02/18 11:13:56;;;;;;;0.30;0.30;;;16.60;97.60;;;;;;5073703;28;20445;-85
2022/02/18 11:16:26;;;;;;;6.63;0.40;;;16.50;97.90;;;;;;5073584;28;20807;-84
2022/02/18 11:18:53;;;;;;;1.17;0.77;;;16.50;97.40;;;;;;5073203;28;20933;-84
2022/02/18 11:21:20;;;;;;;0.30;0.30;;;16.50;98.10;;;;;;5073202;28;20908;-84
2022/02/18 11:23:48;;;;;;;0.30;0.20;;;16.60;97.20;;;;;;5073305;28;20437;-84
2022/02/18 11:26:18;;;;;;;0.30;0.30;;;16.60;97.40;;;;;;5073149;28;20439;-84
2022/02/18 11:28:47;;;;;;;0.40;0.30;;;16.70;97.40;;;;;;5073029;28;20495;-84
2022/02/18 11:31:19;;;;;;;0.30;0.23;;;16.90;97.40;;;;;;5073319;28;20437;-84
2022/02/18 11:34:21;;;;;;;0.30;0.30;;;17.00;97.50;;;;;;5074016;28;20448;-85
2022/02/18 11:37:31;;;;;;;0.30;0.30;;;17.10;98.00;;;;;;5072713;28;20464;-84
2022/02/18 11:40:40;;;;;;;0.30;0.30;;;17.10;97.80;;;;;;5064294;28;20797;-84
2022/02/18 11:43:26;;;;;;;0.30;0.20;;;17.10;97.10;;;;;;5046949;28;20448;-84
2022/02/18 11:45:56;;;;;;;0.37;0.30;;;16.70;97.00;;;;;;5073145;28;20429;-83
2022/02/18 11:48:44;;;;;;;0.40;0.30;;;16.60;97.30;;;;;;5072401;28;21022;-84
2022/02/18 11:51:13;;;;;;;0.30;0.30;;;16.40;97.50;;;;;;5072806;28;20805;-84
2022/02/18 11:53:41;;;;;;;0.50;0.30;;;16.20;97.30;;;;;;5072829;28;20437;-84
2022/02/18 11:56:08;;;;;;;0.30;0.30;;;16.20;97.80;;;;;;5073128;28;20445;-84
2022/02/18 11:58:49;;;;;;;0.30;0.30;;;16.00;98.00;;;;;;5072515;28;20847;-81
2022/02/18 12:02:17;;;;;;;0.30;0.30;;;16.00;98.00;;;;;;5072892;28;20433;-84
2022/02/18 12:05:34;;;;;;;0.30;0.30;;;15.90;97.80;;;;;;5057942;28;20542;-84
2022/02/18 12:08:09;;;;;;;0.30;0.30;;;15.80;97.90;;;;;;5072972;28;20480;-84
2022/02/18 12:11:06;;;;;;;0.30;0.30;;;16.00;98.10;;;;;;5076708;28;20443;-84
2022/02/18 12:13:52;;;;;;;0.30;0.30;;;16.10;97.90;;;;;;5014909;28;20443;-84
2022/02/18 12:17:00;;;;;;;0.30;0.20;;;16.00;97.90;;;;;;5077313;28;20502;-84
2022/02/18 12:23:42;;;;;;;0.30;0.30;;;16.00;98.40;;;;;;5014236;28;20848;-84
2022/02/18 12:29:36;;;;;;;0.60;0.30;;;15.90;98.70;;;;;;5112470;22;20993;-84
2022/02/18 12:36:11;;;;;;;1.90;0.30;;;15.90;98.80;;;;;;5021121;28;20434;-84
2022/02/18 12:42:20;;;;;;;0.40;0.30;;;15.90;99.40;;;;;;4936541;29;20432;-84
2022/02/18 12:44:51;;;;;;;0.30;0.30;;;15.90;99.30;;;;;;4966551;28;20894;-84
2022/02/18 12:47:34;;;;;;;0.30;0.30;;;15.70;99.10;;;;;;5035715;28;20989;-84
2022/02/18 12:50:34;;;;;;;0.30;0.30;;;15.60;99.00;;;;;;5036256;28;20430;-84
2022/02/18 12:53:02;;;;;;;0.30;0.30;;;15.60;98.90;;;;;;5035070;28;20464;-88
2022/02/18 12:55:33;;;;;;;0.30;0.20;;;15.50;98.60;;;;;;5036232;28;20443;-82
2022/02/18 12:58:00;;;;;;;0.30;0.30;;;15.50;98.70;;;;;;5035819;28;20463;-82
2022/02/18 13:00:27;;;;;;;0.30;0.30;;;15.50;98.50;;;;;;5035830;28;20929;-82
2022/02/18 13:02:56;;;;;;;0.40;0.30;;;15.50;98.80;;;;;;5036064;28;20467;-82
2022/02/18 13:05:26;;;;;;;0.30;0.30;;;15.40;98.60;;;;;;5035731;28;20431;-82
2022/02/18 13:07:55;;;;;;;0.30;0.20;;;15.40;98.50;;;;;;5035768;28;20486;-82
2022/02/18 13:10:26;;;;;;;0.30;0.20;;;15.40;99.10;;;;;;5035654;28;20920;-82
2022/02/18 13:12:54;;;;;;;0.60;0.30;;;15.50;98.80;;;;;;5036164;28;20513;-81
2022/02/18 13:15:22;;;;;;;0.30;0.30;;;15.50;98.90;;;;;;5035543;28;20906;-82
2022/02/18 13:17:51;;;;;;;0.40;0.30;;;15.60;98.80;;;;;;5035760;28;20470;-82